• Join FlightAware (Why Join?)
  • Login
  • US Flag 
02:41PM EDT


 

Airport Tracker/Info


-or-


 

Live Flight TrackerFlight Track Log ✈ DAL3606 ✈ 21-Apr-2013 ✈ KATL - KIAD

Flight Track Log - Related Links

Times and Time Zones

All times are in EDT time to prevent confusion due to time zone crossing. See the DAL3606 flight status page for this flight to view local times or setup timezone preferences in your user account.

Time Position Orientation Groundspeed Altitude Reporting Facility
EDT Latitude Longitude Course Direction KTS MPH feet Rate Location/Type
07:43AM 33.6333 -84.4000 53° Northeast 156 180 2,700  Level Atlanta TRACON
07:44AM 33.6333 -84.3167 90° East 237 273 4,600 2,340 Climbing Atlanta TRACON
07:45AM 33.6333 -84.2333 90° East 273 314 7,400 2,340 Climbing Atlanta TRACON
07:46AM 33.8079 -83.8815 54° Northeast  Level FlightAware Approximate
07:46AM 33.6397 -84.0961 87° East 336 387 10,500  Level Atlanta Center
07:47AM 33.8807 -83.7646 48° Northeast  Level FlightAware Approximate
07:47AM 33.7067 -84.0039 49° Northeast 350 403 12,900  Level Atlanta Center
07:48AM 33.9574 -83.6514 53° Northeast  Level FlightAware Approximate
07:48AM 33.7817 -83.9114 46° Northeast 365 420 15,300  Level Atlanta Center
07:49AM 33.8567 -83.8111 48° Northeast 389 448 17,400 1,920 Climbing Atlanta Center
07:50AM 33.9358 -83.7058 48° Northeast 415 478 19,200 1,800 Climbing Atlanta Center
07:51AM 34.0106 -83.5878 53° Northeast 435 501 21,100 1,680 Climbing Atlanta Center
07:52AM 34.0850 -83.4669 53° Northeast 448 516 22,600 1,620 Climbing Atlanta Center
07:53AM 34.1742 -83.3283 52° Northeast 460 529 24,400 1,500 Climbing Atlanta Center
07:54AM 34.2567 -83.1969 53° Northeast 471 542 25,700 1,320 Climbing Atlanta Center
07:55AM 34.3372 -83.0628 54° Northeast 490 564 27,100 1,260 Climbing Atlanta Center
07:56AM 34.4236 -82.9258 53° Northeast 496 571 28,300 1,260 Climbing Atlanta Center
07:57AM 34.5119 -82.7858 53° Northeast 515 593 29,700 1,320 Climbing Atlanta Center
07:58AM 34.6003 -82.6433 53° Northeast 515 593 31,000 600 Climbing Atlanta Center
07:59AM 34.6842 -82.5056 53° Northeast 515 593 31,000  Level Atlanta Center
08:00AM 34.7719 -82.3597 54° Northeast 515 593 31,000  Level Atlanta Center
08:01AM 34.8597 -82.2136 54° Northeast 526 605 31,000  Level Atlanta Center
08:02AM 34.9514 -82.0722 52° Northeast 526 605 31,000  Level Atlanta Center
08:03AM 35.0386 -81.9231 54° Northeast 531 611 31,000  Level Atlanta Center
08:04AM 35.1172 -81.7714 58° Northeast 531 611 31,000  Level Atlanta Center
08:05AM 35.1978 -81.6167 57° Northeast 536 617 31,000  Level Atlanta Center
08:06AM 35.2781 -81.4642 57° Northeast 531 611 31,000  Level Atlanta Center
08:07AM 35.3561 -81.3114 58° Northeast 531 611 31,000  Level Atlanta Center
08:08AM 35.4361 -81.1558 58° Northeast 531 611 31,000  Level Atlanta Center
08:09AM 35.5178 -81.0000 57° Northeast 536 617 31,000  Level Atlanta Center
08:10AM 35.5994 -80.8461 57° Northeast 536 617 31,000  Level Atlanta Center
08:11AM 35.6789 -80.6947 57° Northeast 536 617 31,000  Level Atlanta Center
08:12AM 35.7581 -80.5406 58° Northeast 536 617 31,000  Level Atlanta Center
08:14AM 35.8775 -80.3064 58° Northeast 531 611 31,000  Level Washington Center
08:15AM 35.9564 -80.1544 57° Northeast 531 611 31,000  Level Washington Center
08:16AM 36.0419 -79.9872 58° Northeast 526 605 31,000  Level Washington Center
08:17AM 36.1247 -79.8350 56° Northeast 531 611 31,000  Level Washington Center
08:18AM 36.2044 -79.6978 54° Northeast 541 623 31,000  Level Washington Center
08:19AM 36.2978 -79.5325 55° Northeast 541 623 31,000  Level Washington Center
08:20AM 36.3664 -79.4147 54° Northeast 536 617 31,000  Level Washington Center
08:21AM 36.4572 -79.2461 56° Northeast 536 617 31,000 -840 Level Washington Center
08:22AM 36.5428 -79.0975 54° Northeast 531 611 29,400 -1,800 Descending Washington Center
08:23AM 36.6264 -78.9486 55° Northeast 526 605 27,500 -1,740 Descending Washington Center
08:24AM 36.7100 -78.7917 56° Northeast 513 590 26,000 -780 Descending Washington Center
08:25AM 36.7911 -78.6472 55° Northeast 502 578 26,000  Level Washington Center
08:26AM 36.8983 -78.5267 42° Northeast 502 578 26,000  Level Washington Center
08:27AM 36.9989 -78.4214 40° Northeast 509 586 26,000  Level Washington Center
08:28AM 37.1081 -78.3003 41° Northeast 514 592 26,000 -600 Level Washington Center
08:29AM 37.2150 -78.1817 41° Northeast 514 592 24,800 -1,320 Descending Washington Center
08:30AM 37.3178 -78.0650 42° Northeast 502 578 23,400 -1,440 Descending Washington Center
08:31AM 37.4222 -77.9506 41° Northeast 502 578 22,000 -1,320 Descending Washington Center
08:32AM 37.5203 -77.8411 42° Northeast 492 566 20,800 -1,740 Descending Washington Center
08:33AM 37.6322 -77.7683 27° Northeast 458 527 18,600 -1,980 Descending Washington Center
08:34AM 37.7397 -77.7058 25° Northeast 447 514 16,900 -1,980 Descending Washington Center
08:35AM 37.8450 -77.6456 24° Northeast 422 486 14,700 -2,100 Descending Washington Center
08:36AM 37.9439 -77.5850 26° Northeast 403 464 12,700 -1,980 Descending Washington Center
08:37AM 38.0386 -77.5347 23° Northeast 366 421 10,800 -1,380 Descending Washington Center
08:38AM 38.1167 -77.4894 25° Northeast 317 365 10,000 -420 Descending Washington Center
08:39AM 38.1986 -77.4386 26° Northeast 306 352 10,000  Level Washington Center
08:40AM 38.2786 -77.3903 25° Northeast 311 358 10,000  Level Washington Center
08:41AM 38.3561 -77.3606 17° North 309 356 10,000 -420 Level Washington Center
08:42AM 38.4203 -77.4069 330° Northwest 256 295 9,200 -1,140 Descending Washington Center
08:43AM 38.4842 -77.4508 332° Northwest 256 295 7,800 -1,320 Descending Washington Center
08:44AM 38.5525 -77.4714 347° North 249 287 6,600 -1,260 Descending Washington Center
08:45AM 38.6214 -77.4678 North 242 278 5,300 -1,440 Descending Washington Center
08:45AM 38.6500 -77.4667 North 242 278 4,700 -1,020 Descending Potomac TRACON
08:46AM 38.7000 -77.4667 360° North 203 234 4,000 -360 Descending Potomac TRACON
08:47AM 38.7500 -77.4667 360° North 165 190 4,000 -480 Level Potomac TRACON
08:48AM 38.8000 -77.4667 360° North 177 204 3,100 -900 Descending Potomac TRACON